• Join FlightAware (Why Join?)
  • Login
  • US Flag 
06:29PM EDT


 

Airport Tracker/Info


-or-


 

Live Flight TrackerFlight Track Log ✈ JZA7832 ✈ 01-May-2013 ✈ CYTS - CYYZ

Flight Track Log - Related Links

Times and Time Zones

All times are in EDT time to prevent confusion due to time zone crossing. See the JZA7832 flight status page for this flight to view local times or setup timezone preferences in your user account.

Time Position Orientation Groundspeed Altitude Reporting Facility
EDT Latitude Longitude Course Direction KTS MPH feet Rate Location/Type
08:47PM 48.1918 -81.2521 171° South  Level FlightAware Approximate
08:48PM 48.1333 -81.2349 169° South  Level FlightAware Approximate
08:49PM 48.0747 -81.2174 169° South  Level FlightAware Approximate
08:49PM 48.1500 -81.2833 170° South 200 230 10,600  Level Toronto Center
08:50PM 48.0162 -81.1999 170° South  Level FlightAware Approximate
08:50PM 48.1000 -81.2500 156° South 170 196 11,500  Level Toronto Center
08:51PM 47.9575 -81.1838 170° South  Level FlightAware Approximate
08:51PM 48.0500 -81.2500 180° South 170 196 12,500  Level Toronto Center
08:52PM 47.8988 -81.1678 170° South  Level FlightAware Approximate
08:52PM 48.0000 -81.2167 156° South 180 207 13,400  Level Toronto Center
08:53PM 47.8401 -81.1518 170° South  Level FlightAware Approximate
08:53PM 47.9667 -81.2167 180° South 170 196 14,400  Level Toronto Center
08:54PM 47.7818 -81.1328 167° South  Level FlightAware Approximate
08:54PM 47.9167 -81.2000 167° South 170 196 15,000  Level Toronto Center
08:55PM 47.7235 -81.1141 170° South  Level FlightAware Approximate
08:55PM 47.8667 -81.2000 180° South 190 219 15,000  Level Toronto Center
08:56PM 47.8000 -81.1667 161° South 210 242 15,000  Level Toronto Center
08:57PM 47.7333 -81.1500 170° South 230 265 15,000  Level Toronto Center
08:58PM 47.6667 -81.1333 170° South 230 265 15,000  Level Toronto Center
08:59PM 47.6000 -81.1167 170° South 240 276 15,000  Level Toronto Center
09:00PM 47.5500 -81.0833 156° South 240 276 15,000  Level Toronto Center
09:01PM 47.4667 -81.0667 172° South 240 276 15,000  Level Toronto Center
09:02PM 47.4167 -81.0667 180° South 240 276 15,000  Level Toronto Center
09:03PM 47.3500 -81.0333 161° South 240 276 15,000  Level Toronto Center
09:04PM 47.2833 -81.0000 161° South 240 276 15,000  Level Toronto Center
09:05PM 47.2167 -80.9833 170° South 240 276 15,000  Level Toronto Center
09:06PM 47.1500 -80.9833 180° South 240 276 15,000  Level Toronto Center
09:07PM 47.0833 -80.9500 161° South 240 276 15,000  Level Toronto Center
09:08PM 47.0167 -80.9333 170° South 250 288 15,000  Level Toronto Center
09:09PM 46.9667 -80.9000 156° South 250 288 15,000  Level Toronto Center
09:10PM 46.9000 -80.9000 180° South 250 288 15,000  Level Toronto Center
09:11PM 46.8333 -80.8667 161° South 250 288 15,000  Level Toronto Center
09:12PM 46.7667 -80.8500 170° South 250 288 15,000  Level Toronto Center
09:13PM 46.6833 -80.8167 165° South 250 288 15,000  Level Toronto Center
09:14PM 46.6167 -80.8167 180° South 250 288 15,000  Level Toronto Center
09:15PM 46.5500 -80.8000 170° South 250 288 15,000  Level Toronto Center
09:16PM 46.4833 -80.7667 161° South 250 288 15,000  Level Toronto Center
09:17PM 46.4167 -80.7500 170° South 250 288 15,000  Level Toronto Center
09:18PM 46.3500 -80.7500 180° South 250 288 15,000  Level Toronto Center
09:19PM 46.2667 -80.7167 165° South 250 288 15,000  Level Toronto Center
09:20PM 46.2167 -80.7000 167° South 250 288 15,000  Level Toronto Center
09:21PM 46.1333 -80.6667 165° South 250 288 15,000  Level Toronto Center
09:22PM 46.0667 -80.6667 180° South 260 299 15,000  Level Toronto Center
09:23PM 46.0000 -80.6333 161° South 260 299 15,000  Level Toronto Center
09:24PM 45.9333 -80.6167 170° South 250 288 15,000  Level Toronto Center
09:25PM 45.8667 -80.5833 161° South 260 299 15,000  Level Toronto Center
09:26PM 45.7833 -80.5833 180° South 250 288 15,000  Level Toronto Center
09:27PM 45.7167 -80.5667 170° South 260 299 15,100  Climbing Toronto Center
09:28PM 45.6500 -80.5333 161° South 260 299 15,100  Level Toronto Center
09:29PM 45.5833 -80.5167 170° South 260 299 15,100  Level Toronto Center
09:30PM 45.5167 -80.4833 161° South 250 288 15,100  Level Toronto Center
09:31PM 45.4500 -80.4833 180° South 260 299 15,100  Level Toronto Center
09:32PM 45.3667 -80.4667 172° South 260 299 15,100  Level Toronto Center
09:33PM 45.3000 -80.4333 161° South 260 299 15,100  Level Toronto Center
09:34PM 45.2333 -80.4167 170° South 260 299 15,100  Level Toronto Center
09:35PM 45.1667 -80.4167 180° South 260 299 15,100  Level Toronto Center
09:36PM 45.1000 -80.3833 161° South 250 288 15,100  Level Toronto Center
09:37PM 45.0167 -80.3667 172° South 260 299 15,100  Level Toronto Center
09:38PM 44.9500 -80.3333 161° South 260 299 15,100  Level Toronto Center
09:39PM 44.8833 -80.3333 180° South 260 299 15,100  Level Toronto Center
09:40PM 44.8167 -80.3167 170° South 260 299 15,100  Level Toronto Center
09:41PM 44.7333 -80.2833 164° South 260 299 15,100  Level Toronto Center
09:42PM 44.6667 -80.2667 170° South 260 299 15,100  Level Toronto Center
09:43PM 44.6000 -80.2667 180° South 260 299 15,100  Level Toronto Center
09:44PM 44.5333 -80.2333 160° South 260 299 15,100  Level Toronto Center
09:45PM 44.4667 -80.2167 170° South 260 299 15,100  Level Toronto Center
09:46PM 44.3833 -80.2000 172° South 260 299 15,100 -300 Level Toronto Center
09:47PM 44.3167 -80.1667 160° South 260 299 14,500 -1,080 Descending Toronto Center
09:48PM 44.2333 -80.1500 172° South 290 334 13,000 -1,500 Descending Toronto Center
09:49PM 44.1500 -80.1500 180° South 300 345 11,500 -1,500 Descending Toronto Center
09:50PM 44.0833 -80.0667 138° Southeast 290 334 10,100 -1,500 Descending Toronto Center
09:51PM 44.0333 -80.0000 136° Southeast 280 322 8,600 -1,080 Descending Toronto Center
09:52PM 43.9667 -79.9500 152° Southeast 270 311 8,000 -300 Descending Toronto Center
09:53PM 43.9167 -79.8833 136° Southeast 250 288 8,000 -120 Level Toronto Center
09:54PM 43.8500 -79.8667 170° South 240 276 7,800 -900 Descending Toronto Center
09:55PM 43.7833 -79.8833 190° South 250 288 6,200 -1,680 Descending Toronto Center
09:56PM 43.7167 -79.8667 170° South 240 276 4,500 -1,620 Descending Toronto Center
09:57PM 43.6667 -79.8000 136° Southeast 240 276 3,000 -1,500 Descending Toronto Center